Data for 03/26/2008

Time Sea-Level Adjusted Pressure Absolute Pressure Temperature Relative Humidity Dew Point   
(mb) (inHg) (mb) (inHg) (C) (F) (%) (C) (F)
00:05 1016 30 845 24.95 -1 30.2 85 -3.2 26.2
00:10 1016 30 845 24.95 -1 30.1 85 -3.2 26.2
00:15 1016 30 845 24.95 -1 30.2 85 -3.2 26.2
00:20 1016 30 845 24.95 -1 30.3 85 -3.2 26.2
00:25 1016 30 845 24.95 -0.9 30.3 85 -3.2 26.3
00:30 1016 30 845 24.95 -0.9 30.3 84 -3.2 26.2
00:35 1015 29.97 845 24.95 -0.9 30.5 84 -3.2 26.2
00:40 1016 30 845 24.95 -0.8 30.5 84 -3.2 26.2
00:45 1016 30 845 24.95 -0.8 30.6 84 -3.2 26.2
00:50 1016 30 845 24.95 -0.8 30.6 84 -3.2 26.3
00:55 1016 30 845 24.95 -0.8 30.6 84 -3.2 26.2
01:00 1016 30 845 24.95 -0.8 30.5 84 -3.2 26.2
01:05 1016 30 845 24.95 -0.9 30.4 84 -3.2 26.2
01:10 1016 30 845 24.95 -1 30.3 85 -3.2 26.3
01:15 1016 30 845 24.95 -1 30.2 86 -3.1 26.4
01:20 1016 30 845 24.95 -1.1 30 86 -3.1 26.4
01:25 1016 30 845 24.95 -1.2 29.9 87 -3.1 26.5
01:30 1016 30 845 24.95 -1.3 29.7 88 -3 26.5
01:35 1016 30 845 24.95 -1.3 29.6 89 -3 26.6
01:40 1016 30 845 24.95 -1.4 29.5 89 -3 26.7
01:45 1016 30 845 24.95 -1.5 29.4 90 -2.9 26.7
01:50 1016 30 845 24.95 -1.5 29.4 91 -2.8 27
01:55 1016 30 845 24.95 -1.5 29.3 91 -2.7 27.1
02:00 1016 30 845 24.95 -1.6 29.1 92 -2.7 27.1
02:05 1016 30 845 24.95 -1.7 29 92 -2.7 27.1
02:10 1016 30 845 24.95 -1.7 29 93 -2.7 27.2
02:15 1016 30 845 24.95 -1.6 29.1 93 -2.6 27.3
02:20 1016 30 845 24.95 -1.6 29.1 93 -2.6 27.4
02:25 1016 30 845 24.95 -1.6 29.1 94 -2.5 27.4
02:30 1016 30 845 24.95 -1.6 29.1 94 -2.5 27.5
02:35 1016 30 845 24.95 -1.6 29.1 94 -2.4 27.6
02:40 1016 30 845 24.95 -1.7 28.9 94 -2.5 27.4
02:45 1016 30 845 24.95 -1.6 29.1 94 -2.4 27.6
02:50 1015 29.97 845 24.95 -1.5 29.4 94 -2.3 27.8
02:55 1015 29.97 845 24.95 -1.6 29.1 94 -2.4 27.7
03:00 1015 29.97 845 24.95 -1.7 29 94 -2.5 27.5
03:05 1015 29.97 844 24.92 -1.7 28.9 94 -2.5 27.4
03:10 1015 29.97 844 24.92 -1.7 28.9 95 -2.5 27.5
03:15 1015 29.97 844 24.92 -1.7 29 95 -2.4 27.6
03:20 1015 29.97 844 24.92 -1.7 28.9 95 -2.4 27.6
03:25 1015 29.97 844 24.92 -1.8 28.8 95 -2.5 27.5
03:30 1015 29.97 844 24.92 -1.8 28.8 95 -2.5 27.4
03:35 1015 29.97 844 24.92 -1.8 28.7 95 -2.6 27.4
03:40 1015 29.97 844 24.92 -1.8 28.8 95 -2.5 27.4
03:45 1015 29.97 844 24.92 -1.8 28.7 95 -2.6 27.4
03:50 1015 29.97 844 24.92 -1.7 28.9 95 -2.5 27.5
03:55 1015 29.97 844 24.92 -1.7 28.9 94 -2.5 27.4
04:00 1015 29.97 844 24.92 -1.7 28.9 94 -2.5 27.5
04:05 1015 29.97 844 24.92 -1.7 29 94 -2.5 27.5
04:10 1015 29.97 844 24.92 -1.6 29.1 94 -2.4 27.6
04:15 1015 29.97 844 24.92 -1.6 29.1 94 -2.4 27.6
04:20 1015 29.97 844 24.92 -1.5 29.2 94 -2.4 27.7
04:25 1015 29.97 844 24.92 -1.5 29.2 94 -2.4 27.7
04:30 1015 29.97 844 24.92 -1.5 29.3 94 -2.4 27.7
04:35 1015 29.97 844 24.92 -1.5 29.3 94 -2.4 27.7
04:40 1015 29.97 844 24.92 -1.6 29.2 94 -2.5 27.6
04:45 1015 29.97 844 24.92 -1.5 29.3 93 -2.5 27.6
04:50 1014 29.94 844 24.92 -1.5 29.3 93 -2.5 27.6
04:55 1014 29.94 843 24.89 -1.6 29.2 93 -2.6 27.3
05:00 1014 29.94 843 24.89 -1.7 28.9 93 -2.7 27.1
05:05 1014 29.94 843 24.89 -1.8 28.8 92 -2.9 26.8
05:10 1014 29.94 843 24.89 -1.9 28.7 92 -3 26.6
05:15 1014 29.94 843 24.89 -2 28.4 92 -3.2 26.3
05:20 1014 29.94 843 24.89 -2.1 28.2 92 -3.3 26
05:25 1014 29.94 843 24.89 -2.3 27.9 92 -3.5 25.8
05:30 1014 29.94 843 24.89 -2.4 27.7 92 -3.6 25.6
05:35 1014 29.94 843 24.89 -2.5 27.6 92 -3.6 25.5
05:40 1013 29.91 843 24.89 -2.5 27.6 92 -3.6 25.5
05:45 1013 29.91 843 24.89 -2.5 27.5 92 -3.6 25.5
05:50 1013 29.91 843 24.89 -2.5 27.5 92 -3.6 25.5
05:55 1014 29.94 843 24.89 -2.5 27.5 92 -3.6 25.5
06:00 1013 29.91 843 24.89 -2.5 27.5 92 -3.6 25.5
06:05 1013 29.91 843 24.89 -2.6 27.4 93 -3.6 25.5
06:10 1013 29.91 843 24.89 -2.7 27.2 93 -3.6 25.5
06:15 1013 29.91 843 24.89 -2.8 27 94 -3.6 25.4
06:20 1013 29.91 843 24.89 -2.8 27 94 -3.6 25.5
06:25 1013 29.91 843 24.89 -2.8 26.9 94 -3.7 25.4
06:30 1013 29.91 843 24.89 -2.8 27 94 -3.6 25.5
06:35 1013 29.91 843 24.89 -2.8 26.9 94 -3.6 25.5
06:40 1013 29.91 843 24.89 -2.8 26.9 94 -3.6 25.5
06:45 1013 29.91 843 24.89 -2.8 26.9 94 -3.6 25.5
06:50 1013 29.91 843 24.89 -2.8 27 94 -3.6 25.5
06:55 1013 29.91 843 24.89 -2.8 27 94 -3.6 25.5
07:00 1013 29.91 842 24.86 -2.7 27.1 94 -3.6 25.6
07:05 1013 29.91 842 24.86 -2.7 27.2 94 -3.6 25.6
07:10 1013 29.91 842 24.86 -2.6 27.3 93 -3.6 25.5
07:15 1013 29.91 842 24.86 -2.6 27.4 93 -3.6 25.5
07:20 1013 29.91 842 24.86 -2.6 27.4 93 -3.6 25.5
07:25 1013 29.91 842 24.86 -2.5 27.4 92 -3.6 25.5
07:30 1013 29.91 842 24.86 -2.5 27.5 92 -3.6 25.4
07:35 1013 29.91 842 24.86 -2.5 27.5 92 -3.6 25.4
07:40 1013 29.91 842 24.86 -2.5 27.5 92 -3.7 25.4
07:45 1013 29.91 843 24.89 -2.4 27.6 91 -3.7 25.4
07:50 1013 29.91 843 24.89 -2.4 27.6 91 -3.7 25.3
07:55 1013 29.91 843 24.89 -2.7 27.2 91 -3.9 25
08:00 1013 29.91 842 24.86 -2.8 26.9 92 -4 24.8
08:05 1013 29.91 842 24.86 -3 26.7 92 -4.1 24.6
08:10 1013 29.91 842 24.86 -3.1 26.4 92 -4.2 24.5
08:15 1013 29.91 842 24.86 -3.2 26.2 93 -4.2 24.4
08:20 1013 29.91 842 24.86 -3.1 26.4 93 -4.1 24.7
08:25 1013 29.91 842 24.86 -2.8 26.9 93 -3.8 25.1
08:30 1013 29.91 842 24.86 -2.6 27.3 92 -3.7 25.3
08:35 1013 29.91 842 24.86 -2.6 27.3 92 -3.7 25.4
08:40 1013 29.91 842 24.86 -2.6 27.3 92 -3.7 25.4
08:45 1013 29.91 842 24.86 -2.6 27.3 92 -3.7 25.3
08:50 1013 29.91 842 24.86 -2.4 27.6 92 -3.5 25.6
08:55 1013 29.91 842 24.86 -2.3 27.9 92 -3.4 25.8
09:00 1013 29.91 842 24.86 -2.2 28.1 92 -3.3 26
09:05 1013 29.91 842 24.86 -2 28.3 91 -3.3 26
09:10 1013 29.91 842 24.86 -2.1 28.3 91 -3.4 25.9
09:15 1013 29.91 842 24.86 -2.1 28.3 91 -3.4 25.9
09:20 1013 29.91 842 24.86 -1.9 28.5 91 -3.2 26.2
09:25 1013 29.91 842 24.86 -1.8 28.8 90 -3.2 26.3
09:30 1013 29.91 842 24.86 -1.7 29 90 -3.1 26.3
09:35 1013 29.91 842 24.86 -1.9 28.6 89 -3.4 25.9
09:40 1013 29.91 842 24.86 -2.2 28 90 -3.7 25.4
09:45 1013 29.91 842 24.86 -2.4 27.7 91 -3.7 25.4
09:50 1013 29.91 842 24.86 -2.2 28.1 90 -3.6 25.6
09:55 1013 29.91 842 24.86 -2.1 28.1 90 -3.5 25.6
10:00 1013 29.91 842 24.86 -2.2 28.1 90 -3.5 25.6
10:05 1013 29.91 842 24.86 -1.9 28.6 90 -3.4 25.9
10:10 1013 29.91 842 24.86 -1.6 29.1 89 -3.2 26.3
10:15 1013 29.91 842 24.86 -1.4 29.5 88 -3.1 26.3
10:20 1013 29.91 842 24.86 -1.5 29.3 88 -3.2 26.2
10:25 1013 29.91 842 24.86 -1.3 29.6 88 -3.1 26.4
10:30 1013 29.91 842 24.86 -1.3 29.7 87 -3.1 26.4
10:35 1013 29.91 842 24.86 -1.2 29.8 87 -3.1 26.5
10:40 1013 29.91 842 24.86 -1.1 30.1 87 -3 26.6
10:45 1013 29.91 842 24.86 -1 30.3 87 -2.9 26.7
10:50 1013 29.91 842 24.86 -1 30.2 87 -3 26.7
10:55 1013 29.91 842 24.86 -1 30.3 87 -2.9 26.7
11:00 1013 29.91 842 24.86 -0.9 30.3 87 -2.9 26.8
11:05 1013 29.91 842 24.86 -1 30.2 87 -2.9 26.7
11:10 1013 29.91 842 24.86 -1.1 30 87 -3 26.7
11:15 1013 29.91 842 24.86 -1 30.2 87 -2.9 26.8
11:20 1013 29.91 842 24.86 -0.9 30.3 88 -2.8 27
11:25 1013 29.91 842 24.86 -0.9 30.4 88 -2.6 27.3
11:30 1013 29.91 842 24.86 -0.9 30.4 88 -2.6 27.3
11:35 1013 29.91 842 24.86 -0.8 30.6 88 -2.5 27.6
11:40 1013 29.91 842 24.86 -0.8 30.6 89 -2.5 27.6
11:45 1013 29.91 842 24.86 -0.9 30.3 90 -2.4 27.6
11:50 1013 29.91 842 24.86 -0.9 30.3 90 -2.4 27.6
11:55 1013 29.91 842 24.86 -1 30.3 90 -2.5 27.6
12:00 1013 29.91 842 24.86 -1 30.1 90 -2.5 27.5
12:05 1013 29.91 842 24.86 -1.1 30.1 91 -2.4 27.7
12:10 1013 29.91 842 24.86 -0.9 30.3 91 -2.2 28
12:15 1013 29.91 842 24.86 -1.2 29.9 91 -2.5 27.6
12:20 1013 29.91 842 24.86 -1.3 29.6 92 -2.5 27.5
12:25 1013 29.91 842 24.86 -1.2 29.9 92 -2.3 27.8
12:30 1013 29.91 842 24.86 -1 30.2 93 -2 28.4
12:35 1013 29.91 842 24.86 -0.9 30.3 93 -1.9 28.5
12:40 1013 29.91 842 24.86 -0.9 30.3 93 -1.9 28.5
12:45 1013 29.91 842 24.86 -1 30.2 93 -2 28.5
12:50 1013 29.91 843 24.89 -1 30.1 93 -2 28.4
12:55 1013 29.91 843 24.89 -1.2 29.8 94 -2.1 28.1
13:00 1013 29.91 843 24.89 -1.4 29.5 93 -2.3 27.8
13:05 1013 29.91 843 24.89 -1.4 29.4 95 -2.2 28
13:10 1013 29.91 843 24.89 -1.3 29.7 95 -2.1 28.3
13:15 1013 29.91 843 24.89 -1.3 29.7 94 -2.1 28.3
13:20 1013 29.91 843 24.89 -1.4 29.5 95 -2.2 28.1
13:25 1013 29.91 843 24.89 -1.3 29.7 95 -2 28.3
13:30 1013 29.91 843 24.89 -1.3 29.7 95 -2 28.5
13:35 1013 29.91 842 24.86 -1.1 30 95 -1.8 28.8
13:40 1013 29.91 842 24.86 -0.9 30.4 94 -1.7 28.9
13:45 1013 29.91 842 24.86 -1.2 29.9 94 -2 28.5
13:50 1013 29.91 842 24.86 -1.4 29.5 95 -2.1 28.3
13:55 1013 29.91 842 24.86 -1.5 29.3 94 -2.3 27.8
14:00 1013 29.91 842 24.86 -1.4 29.6 94 -2.2 28
14:05 1013 29.91 842 24.86 -0.9 30.3 92 -2.1 28.3
14:10 1013 29.91 842 24.86 -0.7 30.7 91 -2 28.5
14:15 1013 29.91 842 24.86 -0.3 31.5 90 -1.8 28.8
14:20 1013 29.91 842 24.86 -0.4 31.2 89 -2.1 28.3
14:25 1013 29.91 842 24.86 -0.5 31.2 88 -2.2 28
14:30 1013 29.91 842 24.86 -0.2 31.6 86 -2.3 27.9
14:35 1013 29.91 842 24.86 -0.2 31.6 85 -2.5 27.5
14:40 1013 29.91 842 24.86 -0.3 31.4 81 -3.1 26.3
14:45 1013 29.91 842 24.86 -0.1 31.7 81 -3 26.7
14:50 1013 29.91 842 24.86 0.3 32.6 79 -2.9 26.8
14:55 1012 29.88 842 24.86 0.6 33 78 -2.8 27
15:00 1012 29.88 842 24.86 1.2 34.1 72 -3.3 26
15:05 1012 29.88 842 24.86 1 33.9 69 -4.1 24.6
15:10 1012 29.88 842 24.86 1.4 34.5 67 -4 24.7
15:15 1012 29.88 842 24.86 2.2 36 65 -3.6 25.4
15:20 1012 29.88 842 24.86 2.9 37.2 61 -4 24.8
15:25 1012 29.88 842 24.86 3 37.4 60 -4.1 24.6
15:30 1012 29.88 842 24.86 3.1 37.5 58 -4.4 24
15:35 1012 29.88 842 24.86 3.5 38.4 56 -4.5 23.8
15:40 1012 29.88 841 24.83 4 39.1 51 -5.2 22.7
15:45 1012 29.88 841 24.83 4.1 39.3 49 -5.6 22
15:50 1012 29.88 841 24.83 4.3 39.8 47 -6.1 21
15:55 1012 29.88 841 24.83 3.7 38.7 45 -7 19.4
16:00 1012 29.88 841 24.83 4.2 39.5 44 -7.1 19.3
16:05 1012 29.88 841 24.83 4.1 39.4 44 -7 19.5
16:10 1012 29.88 841 24.83 4.5 40.1 42 -7.3 18.9
16:15 1012 29.88 841 24.83 5.1 41.3 37 -8.5 16.8
16:20 1012 29.88 841 24.83 4.5 40.1 41 -7.7 18.1
16:25 1012 29.88 841 24.83 4.1 39.4 41 -8 17.6
16:30 1012 29.88 841 24.83 3.8 38.8 40 -8.5 16.6
16:35 1012 29.88 841 24.83 4 39.2 39 -8.6 16.5
16:40 1012 29.88 841 24.83 4.6 40.3 38 -8.6 16.5
16:45 1012 29.88 841 24.83 4.3 39.7 38 -8.8 16.1
16:50 1012 29.88 841 24.83 3.9 39.1 39 -8.8 16.1
16:55 1012 29.88 841 24.83 4 39.2 38 -9 15.7
17:00 1012 29.88 841 24.83 4.3 39.8 38 -8.8 16.1
17:05 1012 29.88 841 24.83 5.1 41.2 36 -8.9 16
17:10 1012 29.88 841 24.83 5 41 35 -9.4 15.1
17:15 1012 29.88 841 24.83 4.3 39.7 37 -9.1 15.5
17:20 1012 29.88 841 24.83 4 39.2 38 -9.1 15.6
17:25 1012 29.88 841 24.83 3.9 39.1 39 -8.8 16.2
17:30 1012 29.88 841 24.83 3.9 39 40 -8.6 16.4
17:35 1012 29.88 841 24.83 3.8 38.9 40 -8.7 16.3
17:40 1012 29.88 841 24.83 3.9 39 40 -8.6 16.5
17:45 1011 29.85 841 24.83 3.6 38.4 40 -8.7 16.3
17:50 1011 29.85 841 24.83 3.1 37.6 42 -8.7 16.3
17:55 1011 29.85 841 24.83 3.1 37.6 41 -8.8 16.1
18:00 1012 29.88 841 24.83 2.7 36.9 41 -9.2 15.5
18:05 1012 29.88 841 24.83 2.7 36.9 41 -9.2 15.4
18:10 1011 29.85 841 24.83 3 37.4 41 -9 15.9
18:15 1011 29.85 841 24.83 2.9 37.3 44 -8.3 17.1
18:20 1011 29.85 841 24.83 2.8 37.1 44 -8.2 17.3
18:25 1011 29.85 841 24.83 2.9 37.1 44 -8.3 17
18:30 1012 29.88 841 24.83 2.7 36.9 44 -8.4 16.9
18:35 1012 29.88 841 24.83 2.2 35.9 46 -8.4 17
18:40 1012 29.88 841 24.83 2.3 36.1 45 -8.4 16.8
18:45 1012 29.88 841 24.83 2.6 36.6 46 -8 17.7
18:50 1012 29.88 841 24.83 2.5 36.5 47 -7.8 18
18:55 1012 29.88 841 24.83 2.2 36 47 -7.9 17.8
19:00 1012 29.88 841 24.83 2.3 36.1 47 -7.9 17.8
19:05 1012 29.88 841 24.83 2.4 36.4 50 -7 19.4
19:10 1012 29.88 841 24.83 1.7 35.1 58 -5.6 21.9
19:15 1012 29.88 842 24.86 0.6 33.2 69 -4.3 24.2
19:20 1012 29.88 842 24.86 -0.2 31.6 76 -3.9 25
19:25 1012 29.88 842 24.86 -0.7 30.7 81 -3.6 25.6
19:30 1013 29.91 842 24.86 -1 30.1 85 -3.2 26.3
19:35 1013 29.91 842 24.86 -1.3 29.7 89 -2.9 26.7
19:40 1013 29.91 842 24.86 -1.6 29.1 92 -2.8 26.9
19:45 1013 29.91 842 24.86 -1.8 28.7 93 -2.8 26.9
19:50 1013 29.91 842 24.86 -2.1 28.2 95 -2.9 26.9
19:55 1013 29.91 842 24.86 -2.2 28.1 96 -2.8 27
20:00 1013 29.91 842 24.86 -2.2 28.1 96 -2.7 27.2
20:05 1013 29.91 842 24.86 -2.3 27.9 97 -2.8 27
20:10 1013 29.91 842 24.86 -2.4 27.6 97 -2.9 26.9
20:15 1013 29.91 842 24.86 -2.3 27.8 97 -2.7 27.1
20:20 1013 29.91 842 24.86 -1.9 28.6 97 -2.3 27.8
20:25 1013 29.91 842 24.86 -1.7 29 97 -2.1 28.2
20:30 1013 29.91 842 24.86 -1.5 29.4 97 -1.9 28.5
20:35 1013 29.91 842 24.86 -1.4 29.6 96 -1.9 28.6
20:40 1013 29.91 843 24.89 -1.4 29.5 96 -1.9 28.6
20:45 1014 29.94 843 24.89 -1.5 29.3 97 -2 28.4
20:50 1014 29.94 843 24.89 -1.8 28.8 97 -2.2 28.1
20:55 1014 29.94 843 24.89 -2 28.5 98 -2.3 27.9
21:00 1014 29.94 843 24.89 -2 28.4 98 -2.3 27.9
21:05 1014 29.94 843 24.89 -2.2 28.1 98 -2.4 27.7
21:10 1014 29.94 843 24.89 -2.2 28.1 99 -2.3 27.8
21:15 1014 29.94 843 24.89 -2.1 28.3 99 -2.3 27.9
21:20 1014 29.94 843 24.89 -2 28.5 99 -2.1 28.2
21:25 1014 29.94 843 24.89 -1.9 28.5 99 -2.1 28.2
21:30 1013 29.91 842 24.86 -2 28.4 99 -2.2 28
21:35 1013 29.91 842 24.86 -2.2 28 99 -2.4 27.7
21:40 1013 29.91 842 24.86 -2.4 27.7 99 -2.5 27.5
21:45 1013 29.91 842 24.86 -2.3 27.8 99 -2.4 27.6
21:50 1013 29.91 842 24.86 -2.4 27.7 99 -2.5 27.5
21:55 1013 29.91 842 24.86 -2.5 27.5 99 -2.6 27.3
22:00 1013 29.91 842 24.86 -2.6 27.2 100 -2.6 27.2
22:05 1013 29.91 842 24.86 -2.7 27.1 111 -1.3 29.7
22:10 1013 29.91 842 24.86 -2.8 27 112 -1.3 29.7
22:15 1013 29.91 842 24.86 -2.8 27 112 -1.2 29.8
22:20 1013 29.91 842 24.86 -2.9 26.8 113 -1.2 29.8
22:25 1013 29.91 842 24.86 -3 26.7 115 -1.1 30
22:30 1013 29.91 842 24.86 -3 26.6 117 -0.8 30.5
22:35 1013 29.91 842 24.86 -3.1 26.5 156 3 37.4
22:40 1013 29.91 842 24.86 -3.1 26.4 164 3.7 38.7
22:45 1012 29.88 842 24.86 -3.2 26.2 164 3.6 38.5
22:50 1012 29.88 842 24.86 -3.3 26 164 3.5 38.3
22:55 1012 29.88 841 24.83 -3.4 25.8 164 3.4 38.1
23:00 1012 29.88 841 24.83 -3.6 25.6 164 3.3 37.9
23:05 1012 29.88 841 24.83 -3.6 25.5 164 3.2 37.8
23:10 1012 29.88 841 24.83 -3.7 25.3 164 3.1 37.5
23:15 1012 29.88 841 24.83 -3.8 25.1 165 3 37.4
23:20 1012 29.88 841 24.83 -3.8 25.2 164 3 37.5
23:25 1011 29.85 841 24.83 -3.8 25.1 164 3 37.4
23:30 1011 29.85 841 24.83 -4 24.9 164 2.9 37.1
23:35 1011 29.85 841 24.83 -4 24.8 164 2.8 37
23:40 1011 29.85 841 24.83 -4 24.8 164 2.8 37.1
23:45 1011 29.85 840 24.81 -3.9 24.9 164 2.9 37.2
23:50 1011 29.85 840 24.81 -3.8 25.1 164 3 37.4
23:55 1011 29.85 840 24.81 -3.7 25.3 164 3.1 37.6
24:00 1011 29.85 840 24.81 -3.7 25.3 164 3.1 37.6